PWSweather.com
Personal Weather Stations
Station Observations
MARRWS
Allansford VictoriaAU 3277

Allansford VictoriaAU 3277

Lat: -38.4003683814149, Lon: 142.569826841354

Elevation: 36

Station Type: Fine Offset X7062

http://home.vicnet.net.au/~marr/Weather/

Latest ConditionsUpdated 5:30:02 PM GMT+10:10 Friday, Apr 25, 2014
Currently Today's Max Today's Min Today's Average
Temperature 61.3°F16.3°C 70.5°F21.4°C 59.7°F15.4°C 62.5°F16.9°C
Dew Point 42.6°F5.9°C 46.8°F8.2°C 40.4°F4.7°C 43.7°F6.5°C
Winds 2.4 mph NW3.9 kmh NW 7.5 mph NW12.1 kmh NW - 2.9 mph 4.7 kmh
Wind Gusts 5.4 mph8.7 kmh 15.2 mph24.5 kmh - -
Humidity 50% 56% 10% 23%
Pressure 29.60 in1002.4 mb 29.91 in1012.9 mb 29.60 in1002.4 mb -
Hour Temp Dew Point Humidity Winds Wind Gusts Pressure Precip Precip Rate Daily Precip Total
05:30 PM 61.3°F16.3°C 42.6°F5.9°C 50% 2.4 mph NW3.9 kmh NW 5.4 mph8.7 kmh 29.60 in1002.4 mb 0.00 in0.0 mm 0.00 in/hr0.0 mm/hr 0.00 in0.0 mm
05:20 PM 62.1°F16.7°C 42.7°F5.9°C 49% 2.5 mph NNW4.0 kmh NNW 6.0 mph9.7 kmh 29.60 in1002.4 mb 0.00 in0.0 mm 0.00 in/hr0.0 mm/hr 0.00 in0.0 mm
05:10 PM 63.1°F17.3°C 43.1°F6.2°C 48% 2.6 mph NW4.2 kmh NW 6.0 mph9.7 kmh 29.60 in1002.4 mb 0.00 in0.0 mm 0.00 in/hr0.0 mm/hr 0.00 in0.0 mm
05:00 PM 63.9°F17.7°C 41.5°F5.3°C 44% 4.0 mph NW6.4 kmh NW 6.9 mph11.1 kmh 29.61 in1002.7 mb 0.00 in0.0 mm 0.00 in/hr0.0 mm/hr 0.00 in0.0 mm
04:50 PM 64.4°F18.0°C 42.0°F5.6°C 44% 3.6 mph NW5.8 kmh NW 8.3 mph13.4 kmh 29.60 in1002.4 mb 0.00 in0.0 mm 0.00 in/hr0.0 mm/hr 0.00 in0.0 mm
04:40 PM 64.8°F18.2°C 41.2°F5.1°C 42% 5.2 mph NW8.4 kmh NW 10.7 mph17.2 kmh 29.61 in1002.7 mb 0.00 in0.0 mm 0.00 in/hr0.0 mm/hr 0.00 in0.0 mm
04:30 PM 65.3°F18.5°C 41.6°F5.3°C 42% 5.1 mph NW8.2 kmh NW 10.7 mph17.2 kmh 29.61 in1002.7 mb 0.00 in0.0 mm 0.00 in/hr0.0 mm/hr 0.00 in0.0 mm
04:20 PM 65.5°F18.6°C 41.8°F5.4°C 42% 6.8 mph NW10.9 kmh NW 12.1 mph19.5 kmh 29.62 in1003.0 mb 0.00 in0.0 mm 0.00 in/hr0.0 mm/hr 0.00 in0.0 mm
04:10 PM 66.2°F19.0°C 41.8°F5.4°C 41% 6.9 mph NW11.1 kmh NW 12.1 mph19.5 kmh 29.62 in1003.0 mb 0.00 in0.0 mm 0.00 in/hr0.0 mm/hr 0.00 in0.0 mm
04:00 PM 67.5°F19.7°C 42.3°F5.7°C 40% 6.2 mph NW10.0 kmh NW 13.6 mph21.9 kmh 29.62 in1003.0 mb 0.00 in0.0 mm 0.00 in/hr0.0 mm/hr 0.00 in0.0 mm
03:50 PM 68.4°F20.2°C 40.4°F4.7°C 36% 7.1 mph NW11.4 kmh NW 12.1 mph19.5 kmh 29.63 in1003.4 mb 0.00 in0.0 mm 0.00 in/hr0.0 mm/hr 0.00 in0.0 mm
03:40 PM 68.9°F20.5°C 40.9°F4.9°C 36% 7.1 mph NW11.4 kmh NW 14.5 mph23.3 kmh 29.62 in1003.0 mb 0.00 in0.0 mm 0.00 in/hr0.0 mm/hr 0.00 in0.0 mm
03:30 PM 68.9°F20.5°C 40.9°F4.9°C 36% 7.1 mph NW11.4 kmh NW 13.6 mph21.9 kmh 29.62 in1003.0 mb 0.00 in0.0 mm 0.00 in/hr0.0 mm/hr 0.00 in0.0 mm
03:20 PM 69.3°F20.7°C 41.9°F5.5°C 37% 7.5 mph NW12.1 kmh NW 13.6 mph21.9 kmh 29.62 in1003.0 mb 0.00 in0.0 mm 0.00 in/hr0.0 mm/hr 0.00 in0.0 mm
03:10 PM 69.3°F20.7°C 42.6°F5.9°C 38% 6.6 mph NW10.6 kmh NW 15.2 mph24.5 kmh 29.62 in1003.0 mb 0.00 in0.0 mm 0.00 in/hr0.0 mm/hr 0.00 in0.0 mm
03:00 PM 69.6°F20.9°C 44.3°F6.8°C 40% 6.7 mph NW10.8 kmh NW 13.6 mph21.9 kmh 29.63 in1003.4 mb 0.00 in0.0 mm 0.00 in/hr0.0 mm/hr 0.00 in0.0 mm
02:50 PM 70.3°F21.3°C 44.2°F6.8°C 39% 5.4 mph NW8.7 kmh NW 11.4 mph18.3 kmh 29.63 in1003.4 mb 0.00 in0.0 mm 0.00 in/hr0.0 mm/hr 0.00 in0.0 mm
02:40 PM 70.5°F21.4°C 41.6°F5.3°C 35% 6.1 mph NNW9.8 kmh NNW 15.2 mph24.5 kmh 29.63 in1003.4 mb 0.00 in0.0 mm 0.00 in/hr0.0 mm/hr 0.00 in0.0 mm
02:30 PM 70.2°F21.2°C 44.1°F6.7°C 39% 6.2 mph NNE10.0 kmh NNE 11.4 mph18.3 kmh 29.64 in1003.7 mb 0.00 in0.0 mm 0.00 in/hr0.0 mm/hr 0.00 in0.0 mm
02:20 PM 67.8°F19.9°C 43.3°F6.3°C 41% 5.5 mph NNW8.9 kmh NNW 14.5 mph23.3 kmh 29.64 in1003.7 mb 0.00 in0.0 mm 0.00 in/hr0.0 mm/hr 0.00 in0.0 mm
02:10 PM 68.4°F20.2°C 42.5°F5.8°C 39% 5.3 mph NW8.5 kmh NW 10.7 mph17.2 kmh 29.65 in1004.1 mb 0.00 in0.0 mm 0.00 in/hr0.0 mm/hr 0.00 in0.0 mm
02:00 PM 67.8°F19.9°C 43.3°F6.3°C 41% 5.2 mph NW8.4 kmh NW 9.2 mph14.8 kmh 29.66 in1004.4 mb 0.00 in0.0 mm 0.00 in/hr0.0 mm/hr 0.00 in0.0 mm
01:50 PM 68.4°F20.2°C 41.8°F5.4°C 38% 5.8 mph NW9.3 kmh NW 11.4 mph18.3 kmh 29.67 in1004.7 mb 0.00 in0.0 mm 0.00 in/hr0.0 mm/hr 0.00 in0.0 mm
01:40 PM 69.4°F20.8°C 44.1°F6.7°C 40% 4.7 mph NW7.6 kmh NW 8.3 mph13.4 kmh 29.68 in1005.1 mb 0.00 in0.0 mm 0.00 in/hr0.0 mm/hr 0.00 in0.0 mm
01:30 PM 67.8°F19.9°C 42.6°F5.9°C 40% 6.5 mph NW10.5 kmh NW 12.1 mph19.5 kmh 29.69 in1005.4 mb 0.00 in0.0 mm 0.00 in/hr0.0 mm/hr 0.00 in0.0 mm
01:20 PM 68.5°F20.3°C 42.6°F5.9°C 39% 6.0 mph NNW9.7 kmh NNW 13.0 mph20.9 kmh 29.69 in1005.4 mb 0.00 in0.0 mm 0.00 in/hr0.0 mm/hr 0.00 in0.0 mm
01:10 PM 68.7°F20.4°C 43.4°F6.3°C 40% 6.6 mph NW10.6 kmh NW 14.5 mph23.3 kmh 29.71 in1006.1 mb 0.00 in0.0 mm 0.00 in/hr0.0 mm/hr 0.00 in0.0 mm
01:00 PM 68.7°F20.4°C 44.7°F7.1°C 42% 5.7 mph NW9.2 kmh NW 12.1 mph19.5 kmh 29.71 in1006.1 mb 0.00 in0.0 mm 0.00 in/hr0.0 mm/hr 0.00 in0.0 mm
12:50 PM 68.4°F20.2°C 45.0°F7.2°C 43% 5.4 mph NNW8.7 kmh NNW 10.7 mph17.2 kmh 29.72 in1006.4 mb 0.00 in0.0 mm 0.00 in/hr0.0 mm/hr 0.00 in0.0 mm
12:40 PM 67.6°F19.8°C 43.7°F6.5°C 42% 6.0 mph NNW9.7 kmh NNW 11.4 mph18.3 kmh 29.72 in1006.4 mb 0.00 in0.0 mm 0.00 in/hr0.0 mm/hr 0.00 in0.0 mm
12:30 PM 67.6°F19.8°C 43.7°F6.5°C 42% 5.8 mph NW9.3 kmh NW 13.6 mph21.9 kmh 29.73 in1006.8 mb 0.00 in0.0 mm 0.00 in/hr0.0 mm/hr 0.00 in0.0 mm
12:20 PM 68.4°F20.2°C 45.0°F7.2°C 43% 5.5 mph N8.9 kmh N 11.4 mph18.3 kmh 29.73 in1006.8 mb 0.00 in0.0 mm 0.00 in/hr0.0 mm/hr 0.00 in0.0 mm
12:10 PM 67.6°F19.8°C 44.4°F6.9°C 43% 5.7 mph NNW9.2 kmh NNW 12.1 mph19.5 kmh 29.75 in1007.5 mb 0.00 in0.0 mm 0.00 in/hr0.0 mm/hr 0.00 in0.0 mm
12:00 PM 67.5°F19.7°C 45.4°F7.4°C 45% 4.4 mph NNW7.1 kmh NNW 9.2 mph14.8 kmh 29.75 in1007.5 mb 0.00 in0.0 mm 0.00 in/hr0.0 mm/hr 0.00 in0.0 mm
11:50 AM 67.3°F19.6°C 45.2°F7.3°C 45% 5.3 mph N8.5 kmh N 13.6 mph21.9 kmh 29.76 in1007.8 mb 0.00 in0.0 mm 0.00 in/hr0.0 mm/hr 0.00 in0.0 mm
11:40 AM 66.2°F19.0°C 45.4°F7.4°C 47% 6.3 mph NNW10.1 kmh NNW 13.6 mph21.9 kmh 29.76 in1007.8 mb 0.00 in0.0 mm 0.00 in/hr0.0 mm/hr 0.00 in0.0 mm
11:30 AM 67.1°F19.5°C 46.8°F8.2°C 48% 5.8 mph N9.3 kmh N 11.4 mph18.3 kmh 29.77 in1008.1 mb 0.00 in0.0 mm 0.00 in/hr0.0 mm/hr 0.00 in0.0 mm
11:20 AM 66.7°F19.3°C 45.9°F7.7°C 47% 5.6 mph N9.0 kmh N 9.8 mph15.8 kmh 29.78 in1008.5 mb 0.00 in0.0 mm 0.00 in/hr0.0 mm/hr 0.00 in0.0 mm
10:40 AM 59.7°F15.4°C 44.0°F6.7°C 10% 5.9 mph N9.5 kmh N 11.4 mph18.3 kmh 29.82 in1009.8 mb 0.00 in0.0 mm 0.00 in/hr0.0 mm/hr 0.00 in0.0 mm
10:30 AM 59.7°F15.4°C 44.0°F6.7°C 10% 5.5 mph NNE8.9 kmh NNE 9.8 mph15.8 kmh 29.83 in1010.2 mb 0.00 in0.0 mm 0.00 in/hr0.0 mm/hr 0.00 in0.0 mm
10:20 AM 59.7°F15.4°C 44.0°F6.7°C 10% 5.2 mph NW8.4 kmh NW 11.4 mph18.3 kmh 29.84 in1010.5 mb 0.00 in0.0 mm 0.00 in/hr0.0 mm/hr 0.00 in0.0 mm
10:10 AM 59.7°F15.4°C 44.0°F6.7°C 10% 5.6 mph N9.0 kmh N 11.4 mph18.3 kmh 29.84 in1010.5 mb 0.00 in0.0 mm 0.00 in/hr0.0 mm/hr 0.00 in0.0 mm
10:00 AM 59.7°F15.4°C 44.0°F6.7°C 10% 5.0 mph N8.0 kmh N 9.8 mph15.8 kmh 29.85 in1010.8 mb 0.00 in0.0 mm 0.00 in/hr0.0 mm/hr 0.00 in0.0 mm
09:50 AM 59.7°F15.4°C 44.0°F6.7°C 10% 4.2 mph N6.8 kmh N 8.3 mph13.4 kmh 29.85 in1010.8 mb 0.00 in0.0 mm 0.00 in/hr0.0 mm/hr 0.00 in0.0 mm
09:40 AM 59.7°F15.4°C 44.0°F6.7°C 10% 4.9 mph NNW7.9 kmh NNW 9.8 mph15.8 kmh 29.86 in1011.2 mb 0.00 in0.0 mm 0.00 in/hr0.0 mm/hr 0.00 in0.0 mm
09:30 AM 59.7°F15.4°C 44.0°F6.7°C 10% 4.7 mph N7.6 kmh N 9.2 mph14.8 kmh 29.86 in1011.2 mb 0.00 in0.0 mm 0.00 in/hr0.0 mm/hr 0.00 in0.0 mm
09:20 AM 59.7°F15.4°C 44.0°F6.7°C 10% 5.1 mph N8.2 kmh N 9.8 mph15.8 kmh 29.87 in1011.5 mb 0.00 in0.0 mm 0.00 in/hr0.0 mm/hr 0.00 in0.0 mm
09:10 AM 59.7°F15.4°C 44.0°F6.7°C 10% 4.3 mph N6.9 kmh N 9.2 mph14.8 kmh 29.87 in1011.5 mb 0.00 in0.0 mm 0.00 in/hr0.0 mm/hr 0.00 in0.0 mm
09:00 AM 59.7°F15.4°C 44.0°F6.7°C 10% 4.5 mph NE7.2 kmh NE 9.2 mph14.8 kmh 29.87 in1011.5 mb 0.00 in0.0 mm 0.00 in/hr0.0 mm/hr 0.00 in0.0 mm
08:50 AM 59.7°F15.4°C 44.0°F6.7°C 10% 3.3 mph N5.3 kmh N 6.9 mph11.1 kmh 29.88 in1011.9 mb 0.00 in0.0 mm 0.00 in/hr0.0 mm/hr 0.00 in0.0 mm
08:40 AM 59.7°F15.4°C 44.0°F6.7°C 10% 3.7 mph NNE6.0 kmh NNE 7.6 mph12.2 kmh 29.88 in1011.9 mb 0.00 in0.0 mm 0.00 in/hr0.0 mm/hr 0.00 in0.0 mm
08:30 AM 59.7°F15.4°C 44.0°F6.7°C 10% 2.0 mph NW3.2 kmh NW 6.9 mph11.1 kmh 29.89 in1012.2 mb 0.00 in0.0 mm 0.00 in/hr0.0 mm/hr 0.00 in0.0 mm
08:20 AM 59.7°F15.4°C 44.0°F6.7°C 10% 2.1 mph NE3.4 kmh NE 4.5 mph7.2 kmh 29.89 in1012.2 mb 0.00 in0.0 mm 0.00 in/hr0.0 mm/hr 0.00 in0.0 mm
08:10 AM 59.7°F15.4°C 44.0°F6.7°C 10% 1.9 mph NE3.1 kmh NE 3.8 mph6.1 kmh 29.89 in1012.2 mb 0.00 in0.0 mm 0.00 in/hr0.0 mm/hr 0.00 in0.0 mm
08:00 AM 59.7°F15.4°C 44.0°F6.7°C 10% 0.7 mph NW1.1 kmh NW 3.1 mph5.0 kmh 29.88 in1011.9 mb 0.00 in0.0 mm 0.00 in/hr0.0 mm/hr 0.00 in0.0 mm
07:50 AM 59.7°F15.4°C 44.0°F6.7°C 10% 0.7 mph NW1.1 kmh NW 3.1 mph5.0 kmh 29.89 in1012.2 mb 0.00 in0.0 mm 0.00 in/hr0.0 mm/hr 0.00 in0.0 mm
07:40 AM 59.7°F15.4°C 44.0°F6.7°C 10% 0.7 mph NW1.1 kmh NW 3.1 mph5.0 kmh 29.89 in1012.2 mb 0.00 in0.0 mm 0.00 in/hr0.0 mm/hr 0.00 in0.0 mm
07:30 AM 59.7°F15.4°C 44.0°F6.7°C 10% 0.7 mph NW1.1 kmh NW 3.1 mph5.0 kmh 29.88 in1011.9 mb 0.00 in0.0 mm 0.00 in/hr0.0 mm/hr 0.00 in0.0 mm
07:20 AM 59.7°F15.4°C 44.0°F6.7°C 10% 1.3 mph NNW2.1 kmh NNW 3.8 mph6.1 kmh 29.89 in1012.2 mb 0.00 in0.0 mm 0.00 in/hr0.0 mm/hr 0.00 in0.0 mm
07:10 AM 59.7°F15.4°C 44.0°F6.7°C 10% 2.2 mph N3.5 kmh N 3.8 mph6.1 kmh 29.89 in1012.2 mb 0.00 in0.0 mm 0.00 in/hr0.0 mm/hr 0.00 in0.0 mm
07:00 AM 59.7°F15.4°C 44.0°F6.7°C 10% 0.7 mph N1.1 kmh N 1.6 mph2.6 kmh 29.88 in1011.9 mb 0.00 in0.0 mm 0.00 in/hr0.0 mm/hr 0.00 in0.0 mm
06:50 AM 59.7°F15.4°C 44.0°F6.7°C 10% 0.7 mph N1.1 kmh N 1.6 mph2.6 kmh 29.89 in1012.2 mb 0.00 in0.0 mm 0.00 in/hr0.0 mm/hr 0.00 in0.0 mm
06:40 AM 59.7°F15.4°C 44.0°F6.7°C 10% Calm Calm 0.7 mph1.1 kmh 29.89 in1012.2 mb 0.00 in0.0 mm 0.00 in/hr0.0 mm/hr 0.00 in0.0 mm
06:30 AM 59.7°F15.4°C 44.0°F6.7°C 10% Calm Calm 0.7 mph1.1 kmh 29.89 in1012.2 mb 0.00 in0.0 mm 0.00 in/hr0.0 mm/hr 0.00 in0.0 mm
06:20 AM 59.7°F15.4°C 44.0°F6.7°C 10% Calm Calm 0.7 mph1.1 kmh 29.89 in1012.2 mb 0.00 in0.0 mm 0.00 in/hr0.0 mm/hr 0.00 in0.0 mm
06:10 AM 59.7°F15.4°C 44.0°F6.7°C 10% Calm Calm 0.7 mph1.1 kmh 29.89 in1012.2 mb 0.00 in0.0 mm 0.00 in/hr0.0 mm/hr 0.00 in0.0 mm
06:00 AM 59.7°F15.4°C 44.0°F6.7°C 10% Calm Calm 0.7 mph1.1 kmh 29.90 in1012.5 mb 0.00 in0.0 mm 0.00 in/hr0.0 mm/hr 0.00 in0.0 mm
05:50 AM 59.7°F15.4°C 44.0°F6.7°C 10% Calm Calm 0.7 mph1.1 kmh 29.89 in1012.2 mb 0.00 in0.0 mm 0.00 in/hr0.0 mm/hr 0.00 in0.0 mm
05:40 AM 59.7°F15.4°C 44.0°F6.7°C 10% 0.7 mph N1.1 kmh N 3.1 mph5.0 kmh 29.89 in1012.2 mb 0.00 in0.0 mm 0.00 in/hr0.0 mm/hr 0.00 in0.0 mm
05:30 AM 59.7°F15.4°C 44.0°F6.7°C 10% 0.9 mph NW1.4 kmh NW 4.5 mph7.2 kmh 29.89 in1012.2 mb 0.00 in0.0 mm 0.00 in/hr0.0 mm/hr 0.00 in0.0 mm
05:20 AM 59.7°F15.4°C 44.0°F6.7°C 10% 2.8 mph E4.5 kmh E 4.5 mph7.2 kmh 29.89 in1012.2 mb 0.00 in0.0 mm 0.00 in/hr0.0 mm/hr 0.00 in0.0 mm
05:10 AM 59.7°F15.4°C 44.0°F6.7°C 10% 2.9 mph N4.7 kmh N 4.5 mph7.2 kmh 29.89 in1012.2 mb 0.00 in0.0 mm 0.00 in/hr0.0 mm/hr 0.00 in0.0 mm
05:00 AM 59.7°F15.4°C 44.0°F6.7°C 10% 1.5 mph NNE2.4 kmh NNE 3.8 mph6.1 kmh 29.89 in1012.2 mb 0.00 in0.0 mm 0.00 in/hr0.0 mm/hr 0.00 in0.0 mm
04:50 AM 59.7°F15.4°C 44.0°F6.7°C 10% 1.5 mph N2.4 kmh N 4.5 mph7.2 kmh 29.90 in1012.5 mb 0.00 in0.0 mm 0.00 in/hr0.0 mm/hr 0.00 in0.0 mm
04:40 AM 59.7°F15.4°C 44.0°F6.7°C 10% 1.9 mph NE3.1 kmh NE 4.5 mph7.2 kmh 29.89 in1012.2 mb 0.00 in0.0 mm 0.00 in/hr0.0 mm/hr 0.00 in0.0 mm
04:30 AM 59.7°F15.4°C 44.0°F6.7°C 10% 0.2 mph N0.3 kmh N 1.6 mph2.6 kmh 29.90 in1012.5 mb 0.00 in0.0 mm 0.00 in/hr0.0 mm/hr 0.00 in0.0 mm
04:20 AM 59.7°F15.4°C 44.0°F6.7°C 10% Calm Calm 0.7 mph1.1 kmh 29.89 in1012.2 mb 0.00 in0.0 mm 0.00 in/hr0.0 mm/hr 0.00 in0.0 mm
04:10 AM 59.7°F15.4°C 44.0°F6.7°C 10% Calm Calm -- 29.89 in1012.2 mb 0.00 in0.0 mm 0.00 in/hr0.0 mm/hr 0.00 in0.0 mm
04:00 AM 59.7°F15.4°C 44.0°F6.7°C 10% Calm Calm 1.6 mph2.6 kmh 29.90 in1012.5 mb 0.00 in0.0 mm 0.00 in/hr0.0 mm/hr 0.00 in0.0 mm
03:50 AM 59.7°F15.4°C 44.0°F6.7°C 10% Calm Calm 0.7 mph1.1 kmh 29.90 in1012.5 mb 0.00 in0.0 mm 0.00 in/hr0.0 mm/hr 0.00 in0.0 mm
03:40 AM 59.7°F15.4°C 44.0°F6.7°C 10% Calm Calm -- 29.90 in1012.5 mb 0.00 in0.0 mm 0.00 in/hr0.0 mm/hr 0.00 in0.0 mm
03:30 AM 59.7°F15.4°C 44.0°F6.7°C 10% Calm Calm -- 29.90 in1012.5 mb 0.00 in0.0 mm 0.00 in/hr0.0 mm/hr 0.00 in0.0 mm
03:20 AM 59.7°F15.4°C 44.0°F6.7°C 10% Calm Calm 0.7 mph1.1 kmh 29.90 in1012.5 mb 0.00 in0.0 mm 0.00 in/hr0.0 mm/hr 0.00 in0.0 mm
03:10 AM 59.7°F15.4°C 44.0°F6.7°C 10% Calm Calm 1.6 mph2.6 kmh 29.89 in1012.2 mb 0.00 in0.0 mm 0.00 in/hr0.0 mm/hr 0.00 in0.0 mm
03:00 AM 59.7°F15.4°C 44.0°F6.7°C 10% Calm Calm 0.7 mph1.1 kmh 29.90 in1012.5 mb 0.00 in0.0 mm 0.00 in/hr0.0 mm/hr 0.00 in0.0 mm
02:50 AM 59.7°F15.4°C 44.0°F6.7°C 10% Calm Calm 0.7 mph1.1 kmh 29.91 in1012.9 mb 0.00 in0.0 mm 0.00 in/hr0.0 mm/hr 0.00 in0.0 mm
02:40 AM 59.7°F15.4°C 44.0°F6.7°C 10% Calm Calm 1.6 mph2.6 kmh 29.91 in1012.9 mb 0.00 in0.0 mm 0.00 in/hr0.0 mm/hr 0.00 in0.0 mm
02:30 AM 59.7°F15.4°C 44.0°F6.7°C 10% Calm Calm 0.7 mph1.1 kmh 29.91 in1012.9 mb 0.00 in0.0 mm 0.00 in/hr0.0 mm/hr 0.00 in0.0 mm
02:20 AM 59.7°F15.4°C 44.0°F6.7°C 10% Calm Calm -- 29.91 in1012.9 mb 0.00 in0.0 mm 0.00 in/hr0.0 mm/hr 0.00 in0.0 mm
02:10 AM 59.7°F15.4°C 44.0°F6.7°C 10% Calm Calm 0.7 mph1.1 kmh 29.91 in1012.9 mb 0.00 in0.0 mm 0.00 in/hr0.0 mm/hr 0.00 in0.0 mm
02:00 AM 59.7°F15.4°C 44.0°F6.7°C 10% Calm Calm 0.7 mph1.1 kmh 29.91 in1012.9 mb 0.00 in0.0 mm 0.00 in/hr0.0 mm/hr 0.00 in0.0 mm
01:50 AM 59.7°F15.4°C 44.0°F6.7°C 10% 0.1 mph NNW0.2 kmh NNW 2.2 mph3.5 kmh 29.91 in1012.9 mb 0.00 in0.0 mm 0.00 in/hr0.0 mm/hr 0.00 in0.0 mm
01:40 AM 59.7°F15.4°C 44.0°F6.7°C 10% Calm Calm -- 29.91 in1012.9 mb 0.00 in0.0 mm 0.00 in/hr0.0 mm/hr 0.00 in0.0 mm
01:30 AM 59.7°F15.4°C 44.0°F6.7°C 10% Calm Calm -- 29.90 in1012.5 mb 0.00 in0.0 mm 0.00 in/hr0.0 mm/hr 0.00 in0.0 mm
01:20 AM 59.7°F15.4°C 44.0°F6.7°C 10% Calm Calm -- 29.91 in1012.9 mb 0.00 in0.0 mm 0.00 in/hr0.0 mm/hr 0.00 in0.0 mm
01:10 AM 59.7°F15.4°C 44.0°F6.7°C 10% Calm Calm -- 29.91 in1012.9 mb 0.00 in0.0 mm 0.00 in/hr0.0 mm/hr 0.00 in0.0 mm
01:00 AM 59.7°F15.4°C 44.0°F6.7°C 10% Calm Calm -- 29.90 in1012.5 mb 0.00 in0.0 mm 0.00 in/hr0.0 mm/hr 0.00 in0.0 mm
12:50 AM 59.7°F15.4°C 44.0°F6.7°C 10% Calm Calm -- 29.90 in1012.5 mb 0.00 in0.0 mm 0.00 in/hr0.0 mm/hr 0.00 in0.0 mm
12:40 AM 59.7°F15.4°C 44.0°F6.7°C 10% Calm Calm -- 29.91 in1012.9 mb 0.00 in0.0 mm 0.00 in/hr0.0 mm/hr 0.00 in0.0 mm
12:30 AM 59.7°F15.4°C 44.0°F6.7°C 10% Calm Calm 0.7 mph1.1 kmh 29.91 in1012.9 mb 0.00 in0.0 mm 0.00 in/hr0.0 mm/hr 0.00 in0.0 mm
12:20 AM 59.7°F15.4°C 44.0°F6.7°C 10% Calm Calm 0.7 mph1.1 kmh 29.90 in1012.5 mb 0.00 in0.0 mm 0.00 in/hr0.0 mm/hr 0.00 in0.0 mm
12:10 AM 59.7°F15.4°C 44.0°F6.7°C 56% Calm Calm 0.7 mph1.1 kmh 29.90 in1012.5 mb 0.00 in0.0 mm 0.00 in/hr0.0 mm/hr 0.00 in0.0 mm
12:00 AM 59.7°F15.4°C 44.0°F6.7°C 56% Calm Calm -- 29.89 in1012.2 mb 0.00 in0.0 mm 0.00 in/hr0.0 mm/hr 0.00 in0.0 mm